Latest Weather Observations for Fitzroy Crossing

IDW60801

Issued at 2:43 pm WST Tuesday 16 August 2022 (issued every 10 minutes, with the page automatically refreshed every 10 minutes)

About weather observations | Map of weather stations | Latest weather observations for WA | Other Formats
Station Details ID: 003093 Name: FITZROY CROSSING AERO Lat: -18.18 Lon: 125.56 Height: 114.5 m
Data from the previous 72 hours. | See also: Recent months at Fitzroy Crossing
Date/Time
WST
Temp
°C
App
Temp
°C
Dew
Point
°C
Rel
Hum
%
Delta-T
°C
Wind Press
QNH
hPa
Press
MSL
hPa
Rain since
9am
mm
Dir  Spd
km/h
Gust
km/h
Spd
kts
Gust
kts
16/02:30pm 33.7 28.6 -8.8 6 18.1 ENE 11 20 6 11 1012.6 1012.2 0.0
16/02:00pm 33.7 28.3 -8.8 6 18.1 E 13 26 7 14 1012.9 1012.5 0.0
16/01:30pm 34.1 28.7 -8.5 6 18.3 E 13 26 7 14 1013.3 1012.9 0.0
16/01:00pm 33.9 27.7 -8.7 6 18.2 ENE 17 26 9 14 1014.0 1013.5 0.0
16/12:30pm 33.1 26.3 -9.2 6 17.8 NE 20 35 11 19 1014.4 1013.9 0.0
16/12:00pm 32.4 25.0 -7.8 7 17.2 E 24 39 13 21 1014.9 1014.4 0.0
16/11:30am 32.2 24.8 -7.9 7 17.1 ENE 24 35 13 19 1015.4 1014.9 0.0
16/11:00am 31.9 24.4 -8.1 7 16.9 E 24 37 13 20 1015.8 1015.3 0.0
16/10:30am 31.6 23.4 -8.3 7 16.8 E 28 41 15 22 1016.3 1015.8 0.0
16/10:00am 31.0 23.6 -7.1 8 16.3 E 24 35 13 19 1016.7 1016.2 0.0
16/09:30am 30.0 23.8 -4.9 10 15.4 E 19 30 10 16 1017.0 1016.5 0.0
16/09:00am 27.5 21.5 -3.3 13 13.7 E 19 26 10 14 1017.1 1016.6 0.0
16/08:30am 25.2 20.5 -1.6 17 12.1 E 13 19 7 10 1017.1 1016.6 0.0
16/08:00am 23.4 18.7 -1.5 19 11.0 E 13 20 7 11 1016.8 1016.3 0.0
16/07:30am 20.4 16.8 -2.0 22 9.6 ENE 7 15 4 8 1016.6 1016.1 0.0
16/07:00am 15.9 13.1 -0.3 33 6.9 ENE 4 9 2 5 1016.5 1016.0 0.0
16/06:30am 12.8 9.1 -0.1 41 5.4 E 9 9 5 5 1016.2 1015.7 0.0
16/06:00am 10.5 6.9 -2.2 41 4.9 NE 7 9 4 5 1016.0 1015.5 0.0
16/05:30am 10.8 7.3 -2.9 38 5.2 NE 6 7 3 4 1015.7 1015.2 0.0
16/05:00am 10.7 7.0 -2.7 39 5.1 N 7 9 4 5 1015.6 1015.1 0.0
16/04:30am 10.7 7.2 -1.7 42 4.9 NNW 7 7 4 4 1015.3 1014.8 0.0
16/04:00am 12.2 8.8 -2.4 36 5.7 ENE 6 7 3 4 1015.2 1014.7 0.0
16/03:30am 10.7 7.5 -0.7 45 4.6 N 6 6 3 3 1015.2 1014.7 0.0
16/03:00am 10.1 6.9 -0.7 47 4.3 E 6 7 3 4 1015.2 1014.7 0.0
16/02:30am 11.1 8.0 -0.1 46 4.6 ESE 6 7 3 4 1015.3 1014.8 0.0
16/02:00am 12.9 9.3 -1.8 36 5.9 E 7 9 4 5 1015.4 1014.9 0.0
16/01:30am 11.2 9.1 -0.9 43 4.9 CALM 0 0 0 0 1015.6 1015.1 0.0
16/01:00am 12.1 10.0 -0.7 41 5.2 CALM 0 0 0 0 1015.5 1015.0 0.0
16/12:30am 12.5 10.4 -1.1 39 5.5 CALM 0 0 0 0 1015.5 1015.0 0.0
16/12:00am 12.1 9.9 -1.8 38 5.5 CALM 0 0 0 0 1015.5 1015.0 0.0
 
Date/Time
WST
Temp
°C
App
Temp
°C
Dew
Point
°C
Rel
Hum
%
Delta-T
°C
Wind Press
QNH
hPa
Press
MSL
hPa
Rain since
9am
mm
Dir  Spd
km/h
Gust
km/h
Spd
kts
Gust
kts
15/11:30pm 14.0 11.7 -2.0 33 6.4 CALM 0 0 0 0 1015.3 1014.8 0.0
15/11:00pm 14.4 12.2 -1.6 33 6.5 CALM 0 0 0 0 1015.2 1014.7 0.0
15/10:30pm 15.5 13.2 -2.0 30 7.2 CALM 0 0 0 0 1015.0 1014.5 0.0
15/10:00pm 15.5 13.4 -1.1 32 6.9 CALM 0 0 0 0 1015.1 1014.6 0.0
15/09:30pm 17.7 14.4 -1.0 28 8.0 SE 6 7 3 4 1015.0 1014.5 0.0
15/09:00pm 17.4 15.1 -2.3 26 8.1 CALM 0 0 0 0 1015.0 1014.5 0.0
15/08:30pm 18.0 15.1 -1.3 27 8.2 E 4 6 2 3 1014.9 1014.4 0.0
15/08:00pm 20.2 16.6 -2.2 22 9.5 E 7 7 4 4 1014.7 1014.2 0.0
15/07:30pm 21.7 18.0 -2.9 19 10.5 E 7 9 4 5 1014.3 1013.8 0.0
15/07:00pm 22.9 18.8 -3.4 17 11.2 SE 9 11 5 6 1013.9 1013.4 0.0
15/06:30pm 24.1 19.9 -4.1 15 12.0 SE 9 11 5 6 1013.3 1012.9 0.0
15/06:00pm 25.3 21.1 -4.1 14 12.6 SE 9 11 5 6 1013.2 1012.8 0.0
15/05:30pm 27.7 23.0 -5.4 11 14.2 ESE 11 15 6 8 1012.9 1012.5 0.0
15/05:00pm 30.2 24.3 -6.1 9 15.7 SE 17 22 9 12 1012.7 1012.3 0.0
15/04:30pm 31.4 25.0 -6.8 8 16.5 SE 19 24 10 13 1012.7 1012.3 0.0
15/04:00pm 32.0 24.7 -6.3 8 16.8 SE 24 37 13 20 1012.6 1012.2 0.0
15/03:30pm 32.3 25.4 -6.1 8 16.9 SE 22 30 12 16 1012.7 1012.3 0.0
15/03:00pm 32.7 26.2 -5.8 8 17.1 SE 20 28 11 15 1013.0 1012.6 0.0
15/02:30pm 32.4 26.0 -4.5 9 16.7 SSE 20 32 11 17 1013.1 1012.7 0.0
15/02:00pm 32.6 25.9 -4.3 9 16.8 SE 22 35 12 19 1013.5 1013.1 0.0
15/01:30pm 32.6 25.5 -4.3 9 16.8 ESE 24 35 13 19 1014.2 1013.7 0.0
15/01:00pm 32.5 25.4 -4.4 9 16.7 SE 24 39 13 21 1014.7 1014.2 0.0
15/12:30pm 32.4 25.1 -3.1 10 16.4 ESE 26 37 14 20 1015.3 1014.8 0.0
15/12:00pm 32.4 25.2 -1.8 11 16.2 SE 26 39 14 21 1015.7 1015.2 0.0
15/11:30am 31.6 24.1 -1.2 12 15.6 ESE 28 44 15 24 1016.1 1015.6 0.0
15/11:00am 31.7 24.4 -0.1 13 15.4 ESE 28 41 15 22 1016.8 1016.3 0.0
15/10:30am 31.0 24.1 0.4 14 14.9 ESE 26 39 14 21 1017.1 1016.6 0.0
15/10:00am 30.4 23.3 -1.1 13 14.8 ESE 26 44 14 24 1017.7 1017.2 0.0
15/09:30am 29.8 23.0 -1.5 13 14.6 E 24 35 13 19 1018.0 1017.5 0.0
15/09:00am 28.1 22.8 -0.9 15 13.5 E 17 28 9 15 1018.1 1017.6 0.0
15/08:30am 26.1 21.1 1.4 20 11.8 E 17 20 9 11 1018.1 1017.6 0.0
15/08:00am 24.0 20.0 2.8 25 10.2 E 13 17 7 9 1017.8 1017.3 0.0
15/07:30am 22.4 17.9 2.0 26 9.6 ENE 15 20 8 11 1017.6 1017.1 0.0
15/07:00am 18.3 16.6 3.8 38 6.8 ENE 2 9 1 5 1017.5 1017.0 0.0
15/06:30am 14.9 13.4 3.1 45 5.4 CALM 0 6 0 3 1017.1 1016.6 0.0
15/06:00am 13.9 12.4 3.1 48 4.9 CALM 0 0 0 0 1016.8 1016.3 0.0
15/05:30am 14.9 13.4 3.1 45 5.4 CALM 0 0 0 0 1016.4 1015.9 0.0
15/05:00am 14.9 13.5 3.4 46 5.2 CALM 0 0 0 0 1016.0 1015.5 0.0
15/04:30am 15.1 12.5 3.0 44 5.5 N 6 7 3 4 1015.8 1015.3 0.0
15/04:00am 14.5 12.8 2.1 43 5.5 CALM 0 0 0 0 1015.7 1015.2 0.0
15/03:30am 15.3 12.5 1.8 40 6.0 NNW 6 7 3 4 1015.6 1015.1 0.0
15/03:22am 15.5 12.6 1.6 39 6.1 NNW 6 9 3 5 1015.6 1015.1 0.0
15/03:00am 20.5 16.3 1.9 29 8.6 E 13 17 7 9 1015.5 1015.0 0.0
15/02:30am 21.5 17.3 1.7 27 9.2 ESE 13 20 7 11 1015.2 1014.7 0.0
15/02:00am 21.6 17.0 1.8 27 9.2 ESE 15 19 8 10 1015.2 1014.7 0.0
15/01:30am 22.6 17.3 1.6 25 9.8 ESE 19 24 10 13 1015.2 1014.7 0.0
15/01:00am 23.5 18.2 1.8 24 10.3 ESE 19 24 10 13 1015.1 1014.6 0.0
15/12:30am 22.3 17.0 1.9 26 9.6 ESE 19 22 10 12 1015.1 1014.6 0.0
15/12:00am 19.8 16.2 3.1 33 7.9 E 11 15 6 8 1015.4 1014.9 0.0
 
Date/Time
WST
Temp
°C
App
Temp
°C
Dew
Point
°C
Rel
Hum
%
Delta-T
°C
Wind Press
QNH
hPa
Press
MSL
hPa
Rain since
9am
mm
Dir  Spd
km/h
Gust
km/h
Spd
kts
Gust
kts
14/11:30pm 18.1 15.4 3.6 38 6.8 ESE 7 9 4 5 1015.3 1014.8 0.0
14/11:00pm 17.0 15.5 3.0 39 6.4 CALM 0 0 0 0 1015.4 1014.9 0.0
14/10:30pm 18.0 16.4 2.7 36 7.1 CALM 0 0 0 0 1015.5 1015.0 0.0
14/10:00pm 19.1 17.0 2.0 32 7.8 E 2 6 1 3 1015.5 1015.0 0.0
14/09:30pm 21.6 18.3 2.3 28 9.1 ESE 9 11 5 6 1015.6 1015.1 0.0
14/09:00pm 21.9 18.6 2.6 28 9.2 SE 9 11 5 6 1015.6 1015.1 0.0
14/08:30pm 22.8 19.1 2.3 26 9.7 SE 11 13 6 7 1015.4 1014.9 0.0
14/08:00pm 23.0 19.3 2.5 26 9.8 ESE 11 13 6 7 1015.3 1014.8 0.0
14/07:30pm 23.8 20.1 2.6 25 10.2 ESE 11 11 6 6 1015.0 1014.5 0.0
14/07:00pm 24.8 21.5 2.3 23 10.8 ESE 9 11 5 6 1014.5 1014.0 0.0
14/06:30pm 26.2 22.5 2.2 21 11.7 SE 11 13 6 7 1013.9 1013.4 0.0
14/06:00pm 27.5 23.3 1.8 19 12.5 SE 13 15 7 8 1013.3 1012.9 0.0
14/05:30pm 29.0 25.8 3.1 19 13.0 SE 9 11 5 6 1013.0 1012.6 0.0
14/05:00pm 31.6 27.0 1.8 15 14.9 SE 15 20 8 11 1012.8 1012.4 0.0
14/04:30pm 32.8 28.5 0.8 13 15.9 SE 13 26 7 14 1012.7 1012.3 0.0
14/04:00pm 33.5 27.9 1.3 13 16.2 SSE 20 30 11 16 1012.5 1012.1 0.0
14/03:30pm 33.8 28.6 2.6 14 16.0 SE 19 32 10 17 1012.4 1012.0 0.0
14/03:00pm 34.1 28.8 2.8 14 16.2 SE 20 28 11 15 1012.5 1012.1 0.0
14/02:30pm 33.8 28.4 2.6 14 16.0 SSE 20 32 11 17 1012.6 1012.2 0.0
14/02:00pm 33.8 28.1 2.6 14 16.0 SE 22 33 12 18 1012.8 1012.4 0.0
14/01:30pm 33.6 28.2 2.4 14 16.0 SSE 20 30 11 16 1013.1 1012.7 0.0
14/01:00pm 34.3 29.0 3.0 14 16.2 SE 20 35 11 19 1013.5 1013.1 0.0
14/12:30pm 33.4 28.2 3.3 15 15.6 SE 20 32 11 17 1014.2 1013.7 0.0
14/12:00pm 33.5 28.4 3.3 15 15.7 SE 19 28 10 15 1014.6 1014.1 0.0
14/11:30am 33.3 28.2 3.2 15 15.6 ESE 19 32 10 17 1015.0 1014.5 0.0
14/11:00am 32.8 27.6 3.7 16 15.1 E 20 30 11 16 1015.4 1014.9 0.0
14/10:30am 31.8 28.1 4.6 18 14.3 E 13 22 7 12 1015.8 1015.3 0.0
14/10:00am 30.7 26.6 4.4 19 13.7 E 15 24 8 13 1016.2 1015.7 0.0
14/09:30am 30.1 26.6 5.4 21 13.0 E 13 20 7 11 1016.4 1015.9 0.0
14/09:00am 27.9 24.3 4.9 23 11.8 ESE 13 17 7 9 1016.4 1015.9 0.0
14/08:30am 25.5 21.9 5.1 27 10.4 ESE 13 20 7 11 1016.4 1015.9 0.0
14/08:00am 23.6 20.1 5.5 31 9.2 ESE 13 17 7 9 1016.3 1015.8 0.0
14/07:30am 22.5 20.0 5.0 32 8.7 ESE 7 11 4 6 1016.2 1015.7 0.0
14/07:00am 20.4 18.3 6.0 39 7.2 SE 6 9 3 5 1016.0 1015.5 0.0
14/06:30am 16.9 14.3 6.1 49 5.3 ESE 9 11 5 6 1015.8 1015.3 0.0
14/06:00am 17.0 14.3 5.6 47 5.5 NE 9 11 5 6 1015.0 1014.5 0.0
14/05:30am 15.1 12.4 5.6 53 4.6 NNW 9 11 5 6 1014.8 1014.3 0.0
14/05:00am 13.7 10.9 5.1 56 4.0 NNW 9 13 5 7 1014.6 1014.1 0.0
14/04:30am 15.0 12.2 5.2 52 4.7 SSE 9 15 5 8 1014.1 1013.6 0.0
14/04:00am 16.5 14.3 6.3 51 5.0 SSE 7 9 4 5 1013.5 1013.1 0.0
14/03:30am 15.7 14.9 6.4 54 4.5 CALM 0 0 0 0 1013.6 1013.2 0.0
14/03:00am 15.3 14.2 5.2 51 4.8 CALM 0 4 0 2 1013.9 1013.4 0.0
14/02:30am 16.9 15.1 7.3 53 4.8 ESE 6 7 3 4 1013.9 1013.4 0.0
14/02:00am 16.9 14.9 6.4 50 5.2 S 6 7 3 4 1014.0 1013.5 0.0
14/01:30am 17.1 15.6 6.6 50 5.2 S 4 7 2 4 1014.1 1013.6 0.0
14/01:00am 17.5 16.7 6.7 49 5.4 CALM 0 0 0 0 1014.2 1013.7 0.0
14/12:30am 17.7 16.5 6.6 48 5.5 N 2 6 1 3 1014.4 1013.9 0.0
14/12:00am 19.5 17.5 7.3 45 6.2 S 7 9 4 5 1014.3 1013.8 0.0
 
Date/Time
WST
Temp
°C
App
Temp
°C
Dew
Point
°C
Rel
Hum
%
Delta-T
°C
Wind Press
QNH
hPa
Press
MSL
hPa
Rain since
9am
mm
Dir  Spd
km/h
Gust
km/h
Spd
kts
Gust
kts
13/11:30pm 19.8 18.0 7.2 44 6.4 SSW 6 6 3 3 1014.5 1014.0 0.0
13/11:00pm 20.9 18.9 7.2 41 7.0 SSW 7 11 4 6 1014.4 1013.9 0.0
13/10:30pm 22.3 19.7 6.1 35 8.2 SSE 9 11 5 6 1014.5 1014.0 0.0
13/10:00pm 23.1 20.6 6.4 34 8.6 SE 9 11 5 6 1014.5 1014.0 0.0
13/09:30pm 23.4 20.9 6.7 34 8.6 ESE 9 13 5 7 1014.6 1014.1 0.0
13/09:00pm 24.5 21.3 6.7 32 9.3 S 13 13 7 7 1014.6 1014.1 0.0
13/08:30pm 25.6 22.8 6.8 30 9.9 SSE 11 15 6 8 1014.4 1013.9 0.0
13/08:00pm 26.2 23.0 6.8 29 10.2 SSE 13 17 7 9 1014.2 1013.7 0.0
13/07:30pm 26.6 23.5 7.1 29 10.4 S 13 15 7 8 1014.1 1013.6 0.0
13/07:00pm 27.7 24.5 7.0 27 11.0 S 13 15 7 8 1013.7 1013.3 0.0
13/06:30pm 28.4 24.9 7.1 26 11.4 S 15 17 8 9 1013.2 1012.8 0.0
13/06:00pm 28.6 25.5 7.2 26 11.5 SSW 13 15 7 8 1012.9 1012.5 0.0
13/05:30pm 30.0 27.1 6.6 23 12.6 SSW 11 13 6 7 1012.8 1012.4 0.0
13/05:00pm 31.9 28.2 6.2 20 13.9 SSW 15 20 8 11 1012.6 1012.2 0.0
13/04:30pm 33.2 29.4 5.7 18 14.8 S 15 20 8 11 1012.5 1012.1 0.0
13/04:00pm 33.7 30.2 5.3 17 15.2 SSW 13 22 7 12 1012.2 1011.7 0.0
13/03:30pm 34.5 30.3 5.9 17 15.6 SSW 17 24 9 13 1012.2 1011.7 0.0
13/03:00pm 34.5 31.9 5.9 17 15.6 SW 9 19 5 10 1012.4 1012.0 0.0

Other formats

Comma delimited format used in spreadsheet applications
http://www.bom.gov.au/fwo/IDW60801/IDW60801.94206.axf

JavaScript Object Notation format (JSON) in row-major order
http://www.bom.gov.au/fwo/IDW60801/IDW60801.94206.json

Data quality

Most of these data are generated automatically and are frequently updated. Quality checks on data are not normally performed. It is possible for incorrect values to appear. Refer to information at About Latest Weather Observations and please check the disclaimer before using these data.